4T2 weather

Kenneth Copeland Airport
Fort Worth, Texas, United States

Public forecast

Using degrees Fahrenheit for public forecast. Weather courtesy of forecast.io.

Closest aviation weather report (METAR) to Kenneth Copeland Airport

Closest report is Fort Worth Alliance Airport, 8.6 nm (15.9 km) E. Retrieved 2020/04/09 16:53 UTC (34 minutes ago):

KAFW 091653Z 04011KT 10SM FEW130 BKN200 OVC280 23/13 A2994 RMK AO2 SLP127 T02330128

Closest aviation forecast (TAF) to Kenneth Copeland Airport

Closest forecast is Fort Worth Alliance Airport, 8.6 nm (15.9 km) E. Retrieved 2020/04/09 12:27 UTC (5 hours ago):

TAF KAFW 091125Z 0912/1012 05010KT P6SM BKN300 FM092300 01006KT P6SM OVC050